createdAt,value
2017-09-25T00:00:03.043Z,13.50
2017-09-25T00:02:30.512Z,13.50
2017-09-25T00:04:57.998Z,13.40
2017-09-25T00:07:25.493Z,13.40
2017-09-25T00:09:52.964Z,13.30
2017-09-25T00:12:20.572Z,13.30
2017-09-25T00:14:48.055Z,13.20
2017-09-25T00:17:15.539Z,13.20
2017-09-25T00:19:43.127Z,13.20
2017-09-25T00:22:10.614Z,13.10
2017-09-25T00:24:38.115Z,13.10
2017-09-25T00:27:06.371Z,13.20
2017-09-25T00:29:33.861Z,13.00
2017-09-25T00:32:01.324Z,13.00
2017-09-25T00:34:28.920Z,13.20
2017-09-25T00:36:56.401Z,13.00
2017-09-25T00:39:23.896Z,13.00
2017-09-25T00:41:51.445Z,13.00
2017-09-25T00:44:18.923Z,13.00
2017-09-25T00:46:46.512Z,13.00
2017-09-25T00:49:13.984Z,12.90
2017-09-25T00:51:41.456Z,12.90
2017-09-25T00:54:08.953Z,12.90
2017-09-25T00:56:36.433Z,13.00
2017-09-25T00:59:03.931Z,12.80
2017-09-25T01:01:43.090Z,12.80
2017-09-25T01:04:22.390Z,12.80
2017-09-25T01:06:50.628Z,12.70
2017-09-25T01:09:18.337Z,12.70
2017-09-25T01:11:46.550Z,12.70
2017-09-25T01:14:14.031Z,12.70
2017-09-25T01:16:41.530Z,12.70
2017-09-25T01:19:09.026Z,12.70
2017-09-25T01:21:36.521Z,12.70
2017-09-25T01:24:04.773Z,12.70
2017-09-25T01:26:32.268Z,12.60
2017-09-25T01:28:59.778Z,12.70
2017-09-25T01:31:28.035Z,12.60
2017-09-25T01:33:55.518Z,12.60
2017-09-25T01:36:23.019Z,12.60
2017-09-25T01:38:50.495Z,12.60
2017-09-25T01:41:18.083Z,12.60
2017-09-25T01:43:45.548Z,12.60
2017-09-25T01:46:13.031Z,12.60
2017-09-25T01:48:40.525Z,12.60
2017-09-25T01:51:08.010Z,12.60
2017-09-25T01:53:35.499Z,12.50
2017-09-25T01:56:02.973Z,12.50
2017-09-25T01:58:30.457Z,12.50
2017-09-25T02:00:57.967Z,12.50
2017-09-25T02:03:26.225Z,12.40
2017-09-25T02:05:53.769Z,12.40
2017-09-25T02:08:21.998Z,12.40
2017-09-25T02:10:49.483Z,12.40
2017-09-25T02:13:16.988Z,12.40
2017-09-25T02:15:44.469Z,12.40
2017-09-25T02:18:11.933Z,12.40
2017-09-25T02:20:39.442Z,12.30
2017-09-25T02:23:06.927Z,12.30
2017-09-25T02:25:34.416Z,12.30
2017-09-25T02:28:01.945Z,12.20
2017-09-25T02:30:29.531Z,12.20
2017-09-25T02:32:57.007Z,12.10
2017-09-25T02:35:24.484Z,12.10
2017-09-25T02:37:51.967Z,12.10
2017-09-25T02:40:19.445Z,12.00
2017-09-25T02:42:46.953Z,12.00
2017-09-25T02:45:14.420Z,12.00
2017-09-25T02:47:41.960Z,12.00
2017-09-25T02:50:09.448Z,12.00
2017-09-25T02:52:36.936Z,12.00
2017-09-25T02:55:04.434Z,11.90
2017-09-25T02:57:31.914Z,11.90
2017-09-25T02:59:59.442Z,11.60
2017-09-25T03:02:26.909Z,11.90
2017-09-25T03:04:54.509Z,11.90
2017-09-25T03:07:22.090Z,11.80
2017-09-25T03:09:49.570Z,11.80
2017-09-25T03:12:17.071Z,11.80
2017-09-25T03:14:44.528Z,11.80
2017-09-25T03:17:12.013Z,11.80
2017-09-25T03:19:39.484Z,11.70
2017-09-25T03:22:06.968Z,11.70
2017-09-25T03:24:34.513Z,11.70
2017-09-25T03:27:02.213Z,11.70
2017-09-25T03:29:29.720Z,11.70
2017-09-25T03:31:57.973Z,11.60
2017-09-25T03:34:25.627Z,11.60
2017-09-25T03:36:53.113Z,11.60
2017-09-25T03:39:21.480Z,11.60
2017-09-25T03:41:48.972Z,11.60
2017-09-25T03:44:17.222Z,11.60
2017-09-25T03:46:44.702Z,11.60
2017-09-25T03:49:12.190Z,11.60
2017-09-25T03:51:39.662Z,11.60
2017-09-25T03:54:07.160Z,11.60
2017-09-25T03:56:34.699Z,11.50
2017-09-25T03:59:02.206Z,11.50
2017-09-25T04:01:29.678Z,11.50
2017-09-25T04:03:57.161Z,11.50
2017-09-25T04:06:24.788Z,11.20
2017-09-25T04:08:53.026Z,11.50
2017-09-25T04:11:20.601Z,11.40
2017-09-25T04:13:48.113Z,11.50
2017-09-25T04:16:15.605Z,11.40
2017-09-25T04:18:43.196Z,11.40
2017-09-25T04:21:10.665Z,11.40
2017-09-25T04:23:38.160Z,11.40
2017-09-25T04:26:05.657Z,11.40
2017-09-25T04:28:33.957Z,11.40
2017-09-25T04:31:01.489Z,11.30
2017-09-25T04:33:29.085Z,11.30
2017-09-25T04:35:56.570Z,11.40
2017-09-25T04:38:24.051Z,11.30
2017-09-25T04:40:51.555Z,11.00
2017-09-25T04:43:19.045Z,11.30
2017-09-25T04:45:46.538Z,11.30
2017-09-25T04:48:14.012Z,11.30
2017-09-25T04:50:41.513Z,11.30
2017-09-25T04:53:09.763Z,11.30
2017-09-25T04:55:37.241Z,11.30
2017-09-25T04:58:04.762Z,11.30
2017-09-25T05:00:32.253Z,11.30
2017-09-25T05:02:59.750Z,11.30
2017-09-25T05:05:28.036Z,11.30
2017-09-25T05:07:55.517Z,11.30
2017-09-25T05:10:22.992Z,11.30
2017-09-25T05:12:50.502Z,11.30
2017-09-25T05:15:18.026Z,11.40
2017-09-25T05:17:45.528Z,11.40
2017-09-25T05:20:13.010Z,11.40
2017-09-25T05:22:40.520Z,11.40
2017-09-25T05:25:08.023Z,11.10
2017-09-25T05:27:35.657Z,11.40
2017-09-25T05:30:03.126Z,11.40
2017-09-25T05:32:30.606Z,11.40
2017-09-25T05:34:58.267Z,11.40
2017-09-25T05:37:25.770Z,11.20
2017-09-25T05:39:53.464Z,11.50
2017-09-25T05:42:20.972Z,11.50
2017-09-25T05:44:48.464Z,11.60
2017-09-25T05:47:16.074Z,11.70
2017-09-25T05:49:43.584Z,11.70
2017-09-25T05:52:11.863Z,11.80
2017-09-25T05:54:39.406Z,11.80
2017-09-25T05:57:06.914Z,11.90
2017-09-25T05:59:34.509Z,11.90
2017-09-25T06:02:01.996Z,12.00
2017-09-25T06:04:29.484Z,12.10
2017-09-25T06:06:56.988Z,12.10
2017-09-25T06:09:25.236Z,12.30
2017-09-25T06:11:52.849Z,12.30
2017-09-25T06:14:20.517Z,12.30
2017-09-25T06:16:48.027Z,12.40
2017-09-25T06:19:15.624Z,12.40
2017-09-25T06:21:43.906Z,12.20
2017-09-25T06:24:11.405Z,12.60
2017-09-25T06:26:39.705Z,12.50
2017-09-25T06:29:07.954Z,12.60
2017-09-25T06:31:35.491Z,12.60
2017-09-25T06:34:02.986Z,12.70
2017-09-25T06:36:30.515Z,12.80
2017-09-25T06:38:58.012Z,13.00
2017-09-25T06:41:25.512Z,13.10
2017-09-25T06:43:53.026Z,13.20
2017-09-25T06:46:20.674Z,13.30
2017-09-25T06:48:48.956Z,13.60
2017-09-25T06:51:16.440Z,13.60
2017-09-25T06:53:43.927Z,13.70
2017-09-25T06:56:11.421Z,13.70
2017-09-25T06:58:38.935Z,13.70
2017-09-25T07:01:07.185Z,13.70
2017-09-25T07:03:34.834Z,13.70
2017-09-25T07:06:03.094Z,13.60
2017-09-25T07:08:30.585Z,13.60
2017-09-25T07:10:58.115Z,13.80
2017-09-25T07:13:25.605Z,13.90
2017-09-25T07:15:53.096Z,14.00
2017-09-25T07:18:20.582Z,14.10
2017-09-25T07:20:48.082Z,14.20
2017-09-25T07:23:15.572Z,14.10
2017-09-25T07:25:43.109Z,14.40
2017-09-25T07:28:10.599Z,14.70
2017-09-25T07:30:38.080Z,15.00
2017-09-25T07:33:05.606Z,15.40
2017-09-25T07:35:33.087Z,15.50
2017-09-25T07:38:00.685Z,15.70
2017-09-25T07:40:28.178Z,15.90
2017-09-25T07:42:55.669Z,16.20
2017-09-25T07:45:23.925Z,16.50
2017-09-25T07:47:51.411Z,16.50
2017-09-25T07:50:18.944Z,16.40
2017-09-25T07:52:46.446Z,16.30
2017-09-25T07:55:14.117Z,16.30
2017-09-25T07:57:41.697Z,16.10
2017-09-25T08:00:09.953Z,15.90
2017-09-25T08:02:37.552Z,15.90
2017-09-25T08:05:05.028Z,16.10
2017-09-25T08:07:32.516Z,16.20
2017-09-25T08:10:00.042Z,16.40
2017-09-25T08:12:27.570Z,16.50
2017-09-25T08:14:55.075Z,16.50
2017-09-25T08:17:22.562Z,16.50
2017-09-25T08:19:50.050Z,16.50
2017-09-25T08:22:17.587Z,16.50
2017-09-25T08:24:45.052Z,16.30
2017-09-25T08:27:12.543Z,16.00
2017-09-25T08:29:40.116Z,16.20
2017-09-25T08:32:07.590Z,16.40
2017-09-25T08:34:35.093Z,16.60
2017-09-25T08:37:02.572Z,16.70
2017-09-25T08:39:30.169Z,16.80
2017-09-25T08:41:57.666Z,16.80
2017-09-25T08:44:25.159Z,17.00
2017-09-25T08:46:52.674Z,16.90
2017-09-25T08:49:20.930Z,17.10
2017-09-25T08:51:48.540Z,17.10
2017-09-25T08:54:16.148Z,17.40
2017-09-25T08:56:43.646Z,17.60
2017-09-25T08:59:11.150Z,17.70
2017-09-25T09:01:38.756Z,17.60
2017-09-25T09:04:06.242Z,17.80
2017-09-25T09:06:33.820Z,17.90
2017-09-25T09:09:01.336Z,17.90
2017-09-25T09:11:29.599Z,18.30
2017-09-25T09:13:57.103Z,18.30
2017-09-25T09:16:24.581Z,18.40
2017-09-25T09:18:52.100Z,18.60
2017-09-25T09:21:20.499Z,18.70
2017-09-25T09:23:48.002Z,18.60
2017-09-25T09:26:15.502Z,18.70
2017-09-25T09:28:43.092Z,18.70
2017-09-25T09:31:10.586Z,18.60
2017-09-25T09:33:38.064Z,18.40
2017-09-25T09:36:05.570Z,18.30
2017-09-25T09:38:33.928Z,18.40
2017-09-25T09:41:01.524Z,18.20
2017-09-25T09:43:28.997Z,18.30
2017-09-25T09:45:56.507Z,18.20
2017-09-25T09:48:23.977Z,18.50
2017-09-25T09:50:51.572Z,18.60
2017-09-25T09:53:19.284Z,18.60
2017-09-25T09:55:46.772Z,18.90
2017-09-25T09:58:14.296Z,18.90
2017-09-25T10:00:41.932Z,19.00
2017-09-25T10:03:10.211Z,18.90
2017-09-25T10:05:37.724Z,18.90
2017-09-25T10:08:05.994Z,19.20
2017-09-25T10:10:33.489Z,19.20
2017-09-25T10:13:01.239Z,19.40
2017-09-25T10:15:28.750Z,19.60
2017-09-25T10:17:56.292Z,19.80
2017-09-25T10:20:23.818Z,19.90
2017-09-25T10:22:51.335Z,20.30
2017-09-25T10:25:18.846Z,20.60
2017-09-25T10:27:46.329Z,21.40
2017-09-25T10:30:13.811Z,22.40
2017-09-25T10:32:41.337Z,22.60
2017-09-25T10:35:08.830Z,23.10
2017-09-25T10:37:36.316Z,24.00
2017-09-25T10:40:03.835Z,24.90
2017-09-25T10:42:31.332Z,25.00
2017-09-25T10:44:58.829Z,24.60
2017-09-25T10:47:26.315Z,24.50
2017-09-25T10:49:53.806Z,24.30
2017-09-25T10:52:21.310Z,24.10
2017-09-25T10:54:48.813Z,24.30
2017-09-25T10:57:17.088Z,25.30
2017-09-25T10:59:44.592Z,25.30
2017-09-25T11:02:12.849Z,24.20
2017-09-25T11:04:40.338Z,24.10
2017-09-25T11:07:07.824Z,24.20
2017-09-25T11:09:35.355Z,24.30
2017-09-25T11:12:03.620Z,23.60
2017-09-25T11:14:31.087Z,23.50
2017-09-25T11:16:58.815Z,22.90
2017-09-25T11:19:26.340Z,22.20
2017-09-25T11:21:53.825Z,21.90
2017-09-25T11:24:21.345Z,21.60
2017-09-25T11:26:48.824Z,21.30
2017-09-25T11:29:16.403Z,20.90
2017-09-25T11:31:43.884Z,20.70
2017-09-25T11:34:11.373Z,20.30
2017-09-25T11:36:38.882Z,20.00
2017-09-25T11:39:07.155Z,19.60
2017-09-25T11:41:34.610Z,19.90
2017-09-25T11:44:02.291Z,19.70
2017-09-25T11:46:29.769Z,20.00
2017-09-25T11:48:57.356Z,19.60
2017-09-25T11:51:24.911Z,19.50
2017-09-25T11:53:53.160Z,19.20
2017-09-25T11:56:20.831Z,19.20
2017-09-25T11:58:48.356Z,19.10
2017-09-25T12:01:15.883Z,19.10
2017-09-25T12:03:43.355Z,19.30
2017-09-25T12:06:10.837Z,19.40
2017-09-25T12:08:38.332Z,19.30
2017-09-25T12:11:05.810Z,19.40
2017-09-25T12:13:33.298Z,19.20
2017-09-25T12:16:00.868Z,19.20
2017-09-25T12:18:28.354Z,19.20
2017-09-25T12:20:55.864Z,19.20
2017-09-25T12:23:23.415Z,19.10
2017-09-25T12:25:51.013Z,18.90
2017-09-25T12:28:18.487Z,18.80
2017-09-25T12:30:45.982Z,18.90
2017-09-25T12:33:13.475Z,18.90
2017-09-25T12:35:40.938Z,19.00
2017-09-25T12:38:08.448Z,19.00
2017-09-25T12:40:35.902Z,19.10
2017-09-25T12:43:03.490Z,18.90
2017-09-25T12:45:30.975Z,18.90
2017-09-25T12:47:58.461Z,18.80
2017-09-25T12:50:25.971Z,18.90
2017-09-25T12:52:53.474Z,19.00
2017-09-25T12:55:20.951Z,19.00
2017-09-25T12:57:48.450Z,19.20
2017-09-25T13:00:15.940Z,19.20
2017-09-25T13:02:43.476Z,19.10
2017-09-25T13:05:10.976Z,19.20
2017-09-25T13:07:38.594Z,18.80
2017-09-25T13:10:06.828Z,18.80
2017-09-25T13:12:34.522Z,18.80
2017-09-25T13:15:02.079Z,18.80
2017-09-25T13:17:29.847Z,18.40
2017-09-25T13:19:58.208Z,18.60
2017-09-25T13:22:25.675Z,18.60
2017-09-25T13:24:53.159Z,18.50
2017-09-25T13:27:20.726Z,18.40
2017-09-25T13:29:48.190Z,18.40
2017-09-25T13:32:16.476Z,18.40
2017-09-25T13:34:44.711Z,18.40
2017-09-25T13:37:12.506Z,18.40
2017-09-25T13:39:39.992Z,18.50
2017-09-25T13:42:07.482Z,18.20
2017-09-25T13:44:34.990Z,18.40
2017-09-25T13:47:02.473Z,18.40
2017-09-25T13:49:30.022Z,18.40
2017-09-25T13:51:58.285Z,18.60
2017-09-25T13:54:25.754Z,18.60
2017-09-25T13:56:53.291Z,18.60
2017-09-25T14:04:27.491Z,18.80
2017-09-25T14:06:54.987Z,18.80
2017-09-25T14:09:23.453Z,18.60
2017-09-25T14:11:50.914Z,18.60
2017-09-25T14:14:18.483Z,18.70
2017-09-25T14:16:45.971Z,18.70
2017-09-25T14:19:13.590Z,18.50
2017-09-25T14:21:41.080Z,18.60
2017-09-25T14:24:08.565Z,18.50
2017-09-25T14:26:37.028Z,18.60
2017-09-25T14:29:04.530Z,18.80
2017-09-25T14:31:32.065Z,18.80
2017-09-25T14:34:00.313Z,18.80
2017-09-25T14:36:27.813Z,18.80
2017-09-25T14:38:55.347Z,18.90
2017-09-25T14:41:22.884Z,18.60
2017-09-25T14:43:50.384Z,18.70
2017-09-25T14:46:17.856Z,18.70
2017-09-25T14:48:45.377Z,18.60
2017-09-25T14:51:12.869Z,18.50
2017-09-25T14:53:40.470Z,18.70
2017-09-25T14:56:07.948Z,18.50
2017-09-25T14:58:35.420Z,18.40
2017-09-25T15:01:02.985Z,18.40
2017-09-25T15:03:31.241Z,18.40
2017-09-25T15:05:58.745Z,18.40
2017-09-25T15:08:26.394Z,18.40
2017-09-25T15:10:53.879Z,18.00
2017-09-25T15:13:21.401Z,18.30
2017-09-25T15:15:48.922Z,18.30
2017-09-25T15:18:16.483Z,18.30
2017-09-25T15:20:44.828Z,18.20
2017-09-25T15:23:12.440Z,18.20
2017-09-25T15:25:40.092Z,18.20
2017-09-25T15:28:07.603Z,18.20
2017-09-25T15:30:35.084Z,18.10
2017-09-25T15:33:02.646Z,18.30
2017-09-25T15:35:30.147Z,18.00
2017-09-25T15:37:57.621Z,18.10
2017-09-25T15:40:25.129Z,18.20
2017-09-25T15:42:52.590Z,18.10
2017-09-25T15:45:20.969Z,18.00
2017-09-25T15:47:48.431Z,18.00
2017-09-25T15:50:16.697Z,17.80
2017-09-25T15:52:44.178Z,17.80
2017-09-25T15:55:11.635Z,17.70
2017-09-25T15:57:39.374Z,17.70
2017-09-25T16:00:07.635Z,17.70
2017-09-25T16:02:35.265Z,17.70
2017-09-25T16:05:03.537Z,17.60
2017-09-25T16:07:31.008Z,17.60
2017-09-25T16:09:58.508Z,17.60
2017-09-25T16:12:25.996Z,17.60
2017-09-25T16:14:53.497Z,17.60
2017-09-25T16:17:20.958Z,17.70
2017-09-25T16:19:48.438Z,17.60
2017-09-25T16:22:16.013Z,17.60
2017-09-25T16:24:43.496Z,17.60
2017-09-25T16:27:11.007Z,17.40
2017-09-25T16:29:38.482Z,17.50
2017-09-25T16:32:06.056Z,17.40
2017-09-25T16:34:33.573Z,17.40
2017-09-25T16:37:01.843Z,17.20
2017-09-25T16:39:30.138Z,17.30
2017-09-25T16:41:57.621Z,17.30
2017-09-25T16:44:25.116Z,17.30
2017-09-25T16:46:52.604Z,17.40
2017-09-25T16:49:21.012Z,17.30
2017-09-25T16:51:48.493Z,17.30
2017-09-25T16:54:16.147Z,17.20
2017-09-25T16:56:43.682Z,17.30
2017-09-25T16:59:11.937Z,17.10
2017-09-25T17:01:39.469Z,17.10
2017-09-25T17:04:06.948Z,17.00
2017-09-25T17:06:35.226Z,16.80
2017-09-25T17:09:02.713Z,16.80
2017-09-25T17:11:30.196Z,16.80
2017-09-25T17:13:57.690Z,16.90
2017-09-25T17:16:25.931Z,16.70
2017-09-25T17:18:53.434Z,16.70
2017-09-25T17:21:20.902Z,16.70
2017-09-25T17:23:48.421Z,16.70
2017-09-25T17:26:16.705Z,16.70
2017-09-25T17:28:44.198Z,16.70
2017-09-25T17:31:11.741Z,16.60
2017-09-25T17:33:39.394Z,16.70
2017-09-25T17:36:06.904Z,16.70
2017-09-25T17:38:34.479Z,16.70
2017-09-25T17:41:01.956Z,16.60
2017-09-25T17:43:29.459Z,16.60
2017-09-25T17:45:57.061Z,16.70
2017-09-25T17:48:24.558Z,16.60
2017-09-25T17:50:52.084Z,16.30
2017-09-25T17:53:19.601Z,16.40
2017-09-25T17:55:47.084Z,16.40
2017-09-25T17:58:14.581Z,16.40
2017-09-25T18:00:42.074Z,16.30
2017-09-25T18:03:09.572Z,16.40
2017-09-25T18:05:37.080Z,16.30
2017-09-25T18:08:04.563Z,16.30
2017-09-25T18:10:32.094Z,16.20
2017-09-25T18:13:00.499Z,16.20
2017-09-25T18:15:28.013Z,16.20
2017-09-25T18:17:56.304Z,16.20
2017-09-25T18:20:23.987Z,16.10
2017-09-25T18:22:52.263Z,16.10
2017-09-25T18:25:19.826Z,16.10
2017-09-25T18:27:47.336Z,16.10
2017-09-25T18:30:14.814Z,16.20
2017-09-25T18:32:42.361Z,16.10
2017-09-25T18:35:09.845Z,16.10
2017-09-25T18:37:37.463Z,16.10
2017-09-25T18:40:05.011Z,16.20
2017-09-25T18:42:32.525Z,16.10
2017-09-25T18:45:00.132Z,15.90
2017-09-25T18:47:27.612Z,15.80
2017-09-25T18:49:55.136Z,15.80
2017-09-25T18:52:23.385Z,15.70
2017-09-25T18:54:50.864Z,15.40
2017-09-25T18:57:18.476Z,15.70
2017-09-25T18:59:46.779Z,15.50
2017-09-25T19:02:14.436Z,15.60
2017-09-25T19:04:42.025Z,15.50
2017-09-25T19:07:09.497Z,15.60
2017-09-25T19:09:37.028Z,15.50
2017-09-25T19:12:05.264Z,15.40
2017-09-25T19:14:32.793Z,15.30
2017-09-25T19:17:00.292Z,15.30
2017-09-25T19:19:28.576Z,15.20
2017-09-25T19:21:56.048Z,15.20
2017-09-25T19:24:23.529Z,15.20
2017-09-25T19:26:51.026Z,15.20
2017-09-25T19:29:18.731Z,15.10
2017-09-25T19:31:47.874Z,15.00
2017-09-25T19:34:15.366Z,15.00
2017-09-25T19:36:43.045Z,15.10
2017-09-25T19:39:10.543Z,14.90
2017-09-25T19:41:38.029Z,15.20
2017-09-25T19:44:05.547Z,15.20
2017-09-25T19:46:33.085Z,15.10
2017-09-25T19:49:00.618Z,15.20
2017-09-25T19:51:28.120Z,15.30
2017-09-25T19:53:56.394Z,15.40
2017-09-25T19:56:25.491Z,15.10
2017-09-25T19:58:53.485Z,15.00
2017-09-25T20:01:21.114Z,14.90
2017-09-25T20:03:48.765Z,15.00
2017-09-25T20:06:16.280Z,14.90
2017-09-25T20:08:43.806Z,14.90
2017-09-25T20:11:14.911Z,14.80
2017-09-25T20:13:42.534Z,14.80
2017-09-25T20:16:17.233Z,14.50
2017-09-25T20:18:44.717Z,14.70
2017-09-25T20:21:12.226Z,14.70
2017-09-25T20:23:39.799Z,14.60
2017-09-25T20:26:07.305Z,14.70
2017-09-25T20:28:34.787Z,14.80
2017-09-25T20:31:02.310Z,14.70
2017-09-25T20:33:29.781Z,14.70
2017-09-25T20:35:58.056Z,14.60
2017-09-25T20:38:25.577Z,14.60
2017-09-25T20:40:55.009Z,14.50
2017-09-25T20:43:24.777Z,14.50
2017-09-25T20:45:52.267Z,14.50
2017-09-25T20:48:19.770Z,14.60
2017-09-25T20:50:47.281Z,14.60
2017-09-25T20:53:14.814Z,14.60
2017-09-25T20:55:42.616Z,14.60
2017-09-25T20:58:10.089Z,14.50
2017-09-25T21:00:37.553Z,14.40
2017-09-25T21:03:05.056Z,14.40
2017-09-25T21:05:32.549Z,14.40
2017-09-25T21:08:00.357Z,14.40
2017-09-25T21:10:28.598Z,14.30
2017-09-25T21:12:56.086Z,14.30
2017-09-25T21:15:23.601Z,14.10
2017-09-25T21:17:51.085Z,14.40
2017-09-25T21:20:18.629Z,14.40
2017-09-25T21:22:46.120Z,14.50
2017-09-25T21:25:13.631Z,14.40
2017-09-25T21:27:43.661Z,14.40
2017-09-25T21:30:11.133Z,14.40
2017-09-25T21:32:38.648Z,14.40
2017-09-25T21:35:06.192Z,14.40
2017-09-25T21:37:33.672Z,14.40
2017-09-25T21:40:01.203Z,14.40
2017-09-25T21:42:28.675Z,14.40
2017-09-25T21:44:56.194Z,14.30
2017-09-25T21:47:23.704Z,14.30
2017-09-25T21:49:51.179Z,14.20
2017-09-25T21:52:18.698Z,14.20
2017-09-25T21:54:46.163Z,14.20
2017-09-25T21:57:13.690Z,14.20
2017-09-25T21:59:41.194Z,14.20
2017-09-25T22:02:08.669Z,14.20
2017-09-25T22:04:36.192Z,14.20
2017-09-25T22:07:03.668Z,14.40
2017-09-25T22:09:31.154Z,14.20
2017-09-25T22:11:58.656Z,14.20
2017-09-25T22:14:26.134Z,14.00
2017-09-25T22:16:53.737Z,13.90
2017-09-25T22:19:21.218Z,13.80
2017-09-25T22:21:48.684Z,13.60
2017-09-25T22:24:16.272Z,13.40
2017-09-25T22:26:43.745Z,13.50
2017-09-25T22:29:11.239Z,13.30
2017-09-25T22:31:38.709Z,13.40
2017-09-25T22:34:06.334Z,13.50
2017-09-25T22:36:33.796Z,13.50
2017-09-25T22:39:01.286Z,13.60
2017-09-25T22:41:28.786Z,13.60
2017-09-25T22:44:09.087Z,13.70
2017-09-25T22:46:37.461Z,13.60
2017-09-25T22:49:04.946Z,13.60
2017-09-25T22:51:32.437Z,13.50
2017-09-25T22:53:59.932Z,13.50
2017-09-25T22:56:27.406Z,13.60
2017-09-25T22:58:55.007Z,13.60
2017-09-25T23:01:23.254Z,13.60
2017-09-25T23:03:56.394Z,13.60
2017-09-25T23:06:23.864Z,13.60
2017-09-25T23:08:51.332Z,13.60
2017-09-25T23:11:34.701Z,13.60
2017-09-25T23:14:02.193Z,13.60
2017-09-25T23:16:30.459Z,13.60
2017-09-25T23:18:57.961Z,13.50
2017-09-25T23:21:25.445Z,13.50
2017-09-25T23:23:52.943Z,13.50
2017-09-25T23:26:20.527Z,13.50
2017-09-25T23:28:48.021Z,13.50
2017-09-25T23:31:19.799Z,13.50
2017-09-25T23:33:47.279Z,13.50
2017-09-25T23:36:14.768Z,13.50
2017-09-25T23:38:42.366Z,13.40
2017-09-25T23:41:09.832Z,13.40
2017-09-25T23:43:37.318Z,13.40
2017-09-25T23:46:04.916Z,13.40
2017-09-25T23:48:32.429Z,13.40
2017-09-25T23:50:59.891Z,13.30
2017-09-25T23:53:27.480Z,13.30
2017-09-25T23:55:55.708Z,13.30
2017-09-25T23:58:23.179Z,13.20
